sensor_id;sensor_type;location;lat;lon;timestamp;temperature;humidity
11656;DHT22;5884;43.618;1.438;2022-10-16T04:45:50;18.10;99.90
11656;DHT22;5884;43.618;1.438;2022-10-16T04:48:17;18.10;99.90
11656;DHT22;5884;43.618;1.438;2022-10-16T04:50:45;18.20;99.90
11656;DHT22;5884;43.618;1.438;2022-10-16T04:53:12;18.20;99.90
11656;DHT22;5884;43.618;1.438;2022-10-16T04:55:40;18.20;99.90
11656;DHT22;5884;43.618;1.438;2022-10-16T04:58:07;18.20;99.90
11656;DHT22;5884;43.618;1.438;2022-10-16T05:00:35;18.20;99.90
11656;DHT22;5884;43.618;1.438;2022-10-16T05:03:05;18.20;99.90
11656;DHT22;5884;43.618;1.438;2022-10-16T05:05:34;18.20;99.90
11656;DHT22;5884;43.618;1.438;2022-10-16T05:08:02;18.30;99.90
11656;DHT22;5884;43.618;1.438;2022-10-16T05:10:29;18.30;99.90
11656;DHT22;5884;43.618;1.438;2022-10-16T05:12:57;18.30;99.90
11656;DHT22;5884;43.618;1.438;2022-10-16T05:15:24;18.30;99.90
11656;DHT22;5884;43.618;1.438;2022-10-16T05:17:53;18.30;99.90
11656;DHT22;5884;43.618;1.438;2022-10-16T05:20:22;18.30;99.90
11656;DHT22;5884;43.618;1.438;2022-10-16T05:22:49;18.30;99.90
11656;DHT22;5884;43.618;1.438;2022-10-16T05:25:17;18.30;99.90
11656;DHT22;5884;43.618;1.438;2022-10-16T05:27:47;18.30;99.90
11656;DHT22;5884;43.618;1.438;2022-10-16T05:30:15;18.30;99.90
11656;DHT22;5884;43.618;1.438;2022-10-16T05:32:46;18.30;99.90
11656;DHT22;5884;43.618;1.438;2022-10-16T05:35:14;18.30;99.90
11656;DHT22;5884;43.618;1.438;2022-10-16T05:37:44;18.30;99.90
11656;DHT22;5884;43.618;1.438;2022-10-16T05:40:13;18.30;99.90
11656;DHT22;5884;43.618;1.438;2022-10-16T05:42:40;18.40;99.90
11656;DHT22;5884;43.618;1.438;2022-10-16T05:45:10;18.40;99.90
11656;DHT22;5884;43.618;1.438;2022-10-16T05:47:38;18.40;99.90
11656;DHT22;5884;43.618;1.438;2022-10-16T05:50:06;18.40;99.90
11656;DHT22;5884;43.618;1.438;2022-10-16T05:52:34;18.40;99.90
11656;DHT22;5884;43.618;1.438;2022-10-16T05:55:03;18.40;99.90
11656;DHT22;5884;43.618;1.438;2022-10-16T05:57:31;18.40;99.90
11656;DHT22;5884;43.618;1.438;2022-10-16T05:59:58;18.40;99.90
11656;DHT22;5884;43.618;1.438;2022-10-16T06:02:25;18.40;99.90
11656;DHT22;5884;43.618;1.438;2022-10-16T06:04:53;18.50;99.90
11656;DHT22;5884;43.618;1.438;2022-10-16T06:07:20;18.50;99.90
11656;DHT22;5884;43.618;1.438;2022-10-16T06:09:48;18.50;99.90
11656;DHT22;5884;43.618;1.438;2022-10-16T06:12:17;18.50;99.90
11656;DHT22;5884;43.618;1.438;2022-10-16T06:14:45;18.50;99.90
11656;DHT22;5884;43.618;1.438;2022-10-16T06:17:13;18.50;99.90
11656;DHT22;5884;43.618;1.438;2022-10-16T06:19:40;18.50;99.90
11656;DHT22;5884;43.618;1.438;2022-10-16T06:22:08;18.50;99.90
11656;DHT22;5884;43.618;1.438;2022-10-16T06:24:35;18.60;99.90
11656;DHT22;5884;43.618;1.438;2022-10-16T06:27:03;18.60;99.90
11656;DHT22;5884;43.618;1.438;2022-10-16T06:29:32;18.60;99.90
11656;DHT22;5884;43.618;1.438;2022-10-16T06:31:59;18.60;99.90
11656;DHT22;5884;43.618;1.438;2022-10-16T06:34:27;18.60;99.90
11656;DHT22;5884;43.618;1.438;2022-10-16T06:36:54;18.70;99.90
11656;DHT22;5884;43.618;1.438;2022-10-16T06:39:21;18.70;99.90
11656;DHT22;5884;43.618;1.438;2022-10-16T06:41:48;18.70;99.90
11656;DHT22;5884;43.618;1.438;2022-10-16T06:44:16;18.70;99.90
11656;DHT22;5884;43.618;1.438;2022-10-16T06:46:44;18.70;99.90
11656;DHT22;5884;43.618;1.438;2022-10-16T06:49:12;18.80;99.90
11656;DHT22;5884;43.618;1.438;2022-10-16T06:51:41;18.80;99.90
11656;DHT22;5884;43.618;1.438;2022-10-16T06:54:08;18.90;99.90
11656;DHT22;5884;43.618;1.438;2022-10-16T06:56:36;18.90;99.90
11656;DHT22;5884;43.618;1.438;2022-10-16T06:59:03;18.90;99.90
11656;DHT22;5884;43.618;1.438;2022-10-16T07:01:31;19.00;99.90
11656;DHT22;5884;43.618;1.438;2022-10-16T07:04:00;19.00;99.90
11656;DHT22;5884;43.618;1.438;2022-10-16T07:06:31;19.00;99.90
11656;DHT22;5884;43.618;1.438;2022-10-16T07:09:04;19.00;99.90
11656;DHT22;5884;43.618;1.438;2022-10-16T07:11:32;19.10;99.90
11656;DHT22;5884;43.618;1.438;2022-10-16T07:14:00;19.00;99.90
11656;DHT22;5884;43.618;1.438;2022-10-16T07:16:29;19.10;99.90
11656;DHT22;5884;43.618;1.438;2022-10-16T07:19:00;19.10;99.90
11656;DHT22;5884;43.618;1.438;2022-10-16T07:21:30;19.00;99.90
11656;DHT22;5884;43.618;1.438;2022-10-16T07:24:01;19.20;99.90
11656;DHT22;5884;43.618;1.438;2022-10-16T07:26:33;19.20;99.90
11656;DHT22;5884;43.618;1.438;2022-10-16T07:29:02;19.30;99.90
11656;DHT22;5884;43.618;1.438;2022-10-16T07:31:30;19.30;99.90
11656;DHT22;5884;43.618;1.438;2022-10-16T07:33:59;19.40;99.90
11656;DHT22;5884;43.618;1.438;2022-10-16T07:36:26;19.50;99.90
11656;DHT22;5884;43.618;1.438;2022-10-16T07:38:54;19.50;99.90
11656;DHT22;5884;43.618;1.438;2022-10-16T07:41:21;19.50;99.90
11656;DHT22;5884;43.618;1.438;2022-10-16T07:43:49;19.60;99.90
11656;DHT22;5884;43.618;1.438;2022-10-16T07:46:19;19.70;99.90
11656;DHT22;5884;43.618;1.438;2022-10-16T07:48:47;19.80;99.90
11656;DHT22;5884;43.618;1.438;2022-10-16T07:51:18;19.90;99.90
11656;DHT22;5884;43.618;1.438;2022-10-16T07:53:46;20.00;99.90
11656;DHT22;5884;43.618;1.438;2022-10-16T07:56:15;20.10;99.90
11656;DHT22;5884;43.618;1.438;2022-10-16T07:58:43;20.20;99.90
11656;DHT22;5884;43.618;1.438;2022-10-16T08:01:13;20.30;99.90
11656;DHT22;5884;43.618;1.438;2022-10-16T08:03:42;20.40;99.90
11656;DHT22;5884;43.618;1.438;2022-10-16T08:06:09;20.50;99.90
11656;DHT22;5884;43.618;1.438;2022-10-16T08:08:38;20.50;99.90
11656;DHT22;5884;43.618;1.438;2022-10-16T08:11:05;20.40;99.90
11656;DHT22;5884;43.618;1.438;2022-10-16T08:13:33;20.40;99.90
11656;DHT22;5884;43.618;1.438;2022-10-16T08:16:01;20.20;99.90
11656;DHT22;5884;43.618;1.438;2022-10-16T08:18:29;20.20;99.90
11656;DHT22;5884;43.618;1.438;2022-10-16T08:20:57;20.20;99.90
11656;DHT22;5884;43.618;1.438;2022-10-16T08:23:26;20.30;99.90
11656;DHT22;5884;43.618;1.438;2022-10-16T08:25:56;20.30;99.90
11656;DHT22;5884;43.618;1.438;2022-10-16T08:28:28;20.40;99.90
11656;DHT22;5884;43.618;1.438;2022-10-16T08:30:55;20.40;99.90
11656;DHT22;5884;43.618;1.438;2022-10-16T08:33:23;20.40;99.90
11656;DHT22;5884;43.618;1.438;2022-10-16T08:35:51;20.40;99.90
11656;DHT22;5884;43.618;1.438;2022-10-16T08:38:19;20.50;99.90
11656;DHT22;5884;43.618;1.438;2022-10-16T08:40:47;20.50;99.90
11656;DHT22;5884;43.618;1.438;2022-10-16T08:43:34;20.50;99.90
11656;DHT22;5884;43.618;1.438;2022-10-16T08:46:19;20.60;99.90
11656;DHT22;5884;43.618;1.438;2022-10-16T08:48:53;20.70;99.90
11656;DHT22;5884;43.618;1.438;2022-10-16T08:51:23;20.80;99.90
11656;DHT22;5884;43.618;1.438;2022-10-16T08:53:54;20.70;99.90
11656;DHT22;5884;43.618;1.438;2022-10-16T08:56:23;20.80;99.90
11656;DHT22;5884;43.618;1.438;2022-10-16T08:58:53;20.90;99.90
11656;DHT22;5884;43.618;1.438;2022-10-16T09:01:22;20.90;99.90
11656;DHT22;5884;43.618;1.438;2022-10-16T09:04:11;21.00;99.90
11656;DHT22;5884;43.618;1.438;2022-10-16T09:06:57;21.00;99.90
11656;DHT22;5884;43.618;1.438;2022-10-16T09:09:53;21.10;99.90
11656;DHT22;5884;43.618;1.438;2022-10-16T09:12:31;21.30;99.90
11656;DHT22;5884;43.618;1.438;2022-10-16T09:15:13;21.30;99.90
11656;DHT22;5884;43.618;1.438;2022-10-16T09:17:52;21.30;99.90
11656;DHT22;5884;43.618;1.438;2022-10-16T09:20:36;21.40;99.90
11656;DHT22;5884;43.618;1.438;2022-10-16T09:23:16;21.50;99.90
11656;DHT22;5884;43.618;1.438;2022-10-16T09:25:47;21.60;99.90
11656;DHT22;5884;43.618;1.438;2022-10-16T09:28:16;21.60;99.90
11656;DHT22;5884;43.618;1.438;2022-10-16T09:30:45;21.70;99.90
11656;DHT22;5884;43.618;1.438;2022-10-16T09:33:15;21.70;99.90
11656;DHT22;5884;43.618;1.438;2022-10-16T09:35:45;21.80;99.90
11656;DHT22;5884;43.618;1.438;2022-10-16T09:38:25;21.90;99.90
11656;DHT22;5884;43.618;1.438;2022-10-16T09:40:56;21.90;99.90
11656;DHT22;5884;43.618;1.438;2022-10-16T09:43:26;22.00;99.90
11656;DHT22;5884;43.618;1.438;2022-10-16T09:46:02;22.00;99.90
11656;DHT22;5884;43.618;1.438;2022-10-16T09:48:35;22.10;99.90
11656;DHT22;5884;43.618;1.438;2022-10-16T09:51:06;22.10;99.90
11656;DHT22;5884;43.618;1.438;2022-10-16T09:53:55;22.10;99.90
11656;DHT22;5884;43.618;1.438;2022-10-16T09:56:25;22.20;99.90
11656;DHT22;5884;43.618;1.438;2022-10-16T09:58:55;22.20;99.90
11656;DHT22;5884;43.618;1.438;2022-10-16T10:01:29;22.10;99.90
11656;DHT22;5884;43.618;1.438;2022-10-16T10:03:58;22.30;99.90
11656;DHT22;5884;43.618;1.438;2022-10-16T10:06:30;22.40;99.90
11656;DHT22;5884;43.618;1.438;2022-10-16T10:09:15;22.40;99.90
11656;DHT22;5884;43.618;1.438;2022-10-16T10:11:49;22.50;99.90
11656;DHT22;5884;43.618;1.438;2022-10-16T10:14:24;22.60;99.90
11656;DHT22;5884;43.618;1.438;2022-10-16T10:17:14;22.70;99.90
11656;DHT22;5884;43.618;1.438;2022-10-16T10:19:48;22.80;99.90
11656;DHT22;5884;43.618;1.438;2022-10-16T10:22:23;22.90;99.90
11656;DHT22;5884;43.618;1.438;2022-10-16T10:24:57;23.00;99.90
11656;DHT22;5884;43.618;1.438;2022-10-16T10:27:36;23.00;99.90
11656;DHT22;5884;43.618;1.438;2022-10-16T10:30:10;23.00;99.90
11656;DHT22;5884;43.618;1.438;2022-10-16T10:32:52;23.00;99.90
11656;DHT22;5884;43.618;1.438;2022-10-16T10:35:33;23.10;99.90
11656;DHT22;5884;43.618;1.438;2022-10-16T10:38:24;23.10;99.90
11656;DHT22;5884;43.618;1.438;2022-10-16T10:41:04;23.20;99.90
11656;DHT22;5884;43.618;1.438;2022-10-16T10:43:49;23.30;99.90
11656;DHT22;5884;43.618;1.438;2022-10-16T10:46:29;23.30;99.90
11656;DHT22;5884;43.618;1.438;2022-10-16T10:49:17;23.40;99.90
11656;DHT22;5884;43.618;1.438;2022-10-16T10:52:00;23.40;99.90
11656;DHT22;5884;43.618;1.438;2022-10-16T10:54:38;23.40;99.90
11656;DHT22;5884;43.618;1.438;2022-10-16T10:57:11;23.50;99.90
11656;DHT22;5884;43.618;1.438;2022-10-16T10:59:54;23.50;99.90
11656;DHT22;5884;43.618;1.438;2022-10-16T11:02:42;23.50;99.90
11656;DHT22;5884;43.618;1.438;2022-10-16T11:08:13;23.70;99.90
11656;DHT22;5884;43.618;1.438;2022-10-16T11:10:47;23.70;99.90
11656;DHT22;5884;43.618;1.438;2022-10-16T11:13:28;23.80;99.90
11656;DHT22;5884;43.618;1.438;2022-10-16T11:16:00;23.80;99.90
11656;DHT22;5884;43.618;1.438;2022-10-16T11:18:35;23.80;99.90
11656;DHT22;5884;43.618;1.438;2022-10-16T11:21:13;23.80;99.90
11656;DHT22;5884;43.618;1.438;2022-10-16T11:23:46;23.80;99.90
11656;DHT22;5884;43.618;1.438;2022-10-16T11:26:21;23.80;99.90
11656;DHT22;5884;43.618;1.438;2022-10-16T11:28:52;23.90;99.90
11656;DHT22;5884;43.618;1.438;2022-10-16T11:31:27;24.00;99.90
11656;DHT22;5884;43.618;1.438;2022-10-16T11:34:02;24.00;99.90
11656;DHT22;5884;43.618;1.438;2022-10-16T11:36:38;23.90;99.90
11656;DHT22;5884;43.618;1.438;2022-10-16T11:39:16;23.90;99.90
11656;DHT22;5884;43.618;1.438;2022-10-16T11:41:49;24.00;99.90
11656;DHT22;5884;43.618;1.438;2022-10-16T11:44:34;24.10;99.90
11656;DHT22;5884;43.618;1.438;2022-10-16T11:47:14;24.10;99.90
11656;DHT22;5884;43.618;1.438;2022-10-16T11:49:53;24.30;99.90
11656;DHT22;5884;43.618;1.438;2022-10-16T11:52:33;24.20;99.90
11656;DHT22;5884;43.618;1.438;2022-10-16T11:55:08;24.20;99.90
11656;DHT22;5884;43.618;1.438;2022-10-16T11:57:44;24.20;99.90
11656;DHT22;5884;43.618;1.438;2022-10-16T12:00:20;24.20;99.90
11656;DHT22;5884;43.618;1.438;2022-10-16T12:02:56;24.30;99.90
11656;DHT22;5884;43.618;1.438;2022-10-16T12:05:33;24.30;99.90
11656;DHT22;5884;43.618;1.438;2022-10-16T12:08:09;24.40;99.90
11656;DHT22;5884;43.618;1.438;2022-10-16T12:10:38;24.60;99.90
11656;DHT22;5884;43.618;1.438;2022-10-16T12:13:31;24.50;99.90
11656;DHT22;5884;43.618;1.438;2022-10-16T12:16:19;24.60;99.90
11656;DHT22;5884;43.618;1.438;2022-10-16T12:19:07;24.50;99.90
11656;DHT22;5884;43.618;1.438;2022-10-16T12:21:37;24.30;99.90
11656;DHT22;5884;43.618;1.438;2022-10-16T12:24:07;24.40;99.90
11656;DHT22;5884;43.618;1.438;2022-10-16T12:26:49;24.50;99.90
11656;DHT22;5884;43.618;1.438;2022-10-16T12:29:25;24.60;99.90
11656;DHT22;5884;43.618;1.438;2022-10-16T12:31:57;24.60;99.90
11656;DHT22;5884;43.618;1.438;2022-10-16T12:34:28;24.60;99.90
11656;DHT22;5884;43.618;1.438;2022-10-16T12:37:12;24.60;99.90
11656;DHT22;5884;43.618;1.438;2022-10-16T12:39:42;24.70;99.90
11656;DHT22;5884;43.618;1.438;2022-10-16T12:42:31;24.80;99.90
11656;DHT22;5884;43.618;1.438;2022-10-16T12:45:01;24.70;99.90
11656;DHT22;5884;43.618;1.438;2022-10-16T12:47:48;24.70;99.90
11656;DHT22;5884;43.618;1.438;2022-10-16T12:50:38;24.70;99.90
11656;DHT22;5884;43.618;1.438;2022-10-16T12:53:18;24.70;99.90
11656;DHT22;5884;43.618;1.438;2022-10-16T12:56:00;24.70;99.90
11656;DHT22;5884;43.618;1.438;2022-10-16T12:58:57;24.60;99.90
11656;DHT22;5884;43.618;1.438;2022-10-16T13:01:41;24.70;99.90
11656;DHT22;5884;43.618;1.438;2022-10-16T13:04:35;24.60;99.90
11656;DHT22;5884;43.618;1.438;2022-10-16T13:07:26;24.60;99.90
11656;DHT22;5884;43.618;1.438;2022-10-16T13:10:13;24.70;99.90
11656;DHT22;5884;43.618;1.438;2022-10-16T13:13:16;24.70;99.90
11656;DHT22;5884;43.618;1.438;2022-10-16T13:16:03;24.70;99.90
11656;DHT22;5884;43.618;1.438;2022-10-16T13:18:44;24.60;99.90
11656;DHT22;5884;43.618;1.438;2022-10-16T13:21:29;24.50;99.90
11656;DHT22;5884;43.618;1.438;2022-10-16T13:24:11;24.60;99.90
11656;DHT22;5884;43.618;1.438;2022-10-16T13:26:48;24.60;99.90
11656;DHT22;5884;43.618;1.438;2022-10-16T13:29:20;24.60;99.90
11656;DHT22;5884;43.618;1.438;2022-10-16T13:31:48;24.70;99.90
11656;DHT22;5884;43.618;1.438;2022-10-16T13:34:17;24.70;99.90
11656;DHT22;5884;43.618;1.438;2022-10-16T13:36:48;24.60;99.90
11656;DHT22;5884;43.618;1.438;2022-10-16T13:39:22;24.60;99.90
11656;DHT22;5884;43.618;1.438;2022-10-16T13:42:04;24.60;99.90
11656;DHT22;5884;43.618;1.438;2022-10-16T13:44:39;24.70;99.90
11656;DHT22;5884;43.618;1.438;2022-10-16T13:47:15;24.80;99.90
11656;DHT22;5884;43.618;1.438;2022-10-16T13:49:44;24.90;99.90
11656;DHT22;5884;43.618;1.438;2022-10-16T13:52:19;24.70;99.90
11656;DHT22;5884;43.618;1.438;2022-10-16T13:54:47;24.70;99.90
11656;DHT22;5884;43.618;1.438;2022-10-16T13:57:16;24.60;99.90
11656;DHT22;5884;43.618;1.438;2022-10-16T13:59:45;24.60;99.90
11656;DHT22;5884;43.618;1.438;2022-10-16T14:02:20;24.60;99.90
11656;DHT22;5884;43.618;1.438;2022-10-16T14:04:49;24.70;99.90
11656;DHT22;5884;43.618;1.438;2022-10-16T14:07:22;24.70;99.90
11656;DHT22;5884;43.618;1.438;2022-10-16T14:09:51;24.60;99.90
11656;DHT22;5884;43.618;1.438;2022-10-16T14:12:20;24.70;99.90
11656;DHT22;5884;43.618;1.438;2022-10-16T14:14:51;24.60;99.90
11656;DHT22;5884;43.618;1.438;2022-10-16T14:17:23;24.60;99.90
11656;DHT22;5884;43.618;1.438;2022-10-16T14:19:54;24.60;99.90
11656;DHT22;5884;43.618;1.438;2022-10-16T14:22:29;24.60;99.90
11656;DHT22;5884;43.618;1.438;2022-10-16T14:24:57;24.60;99.90
11656;DHT22;5884;43.618;1.438;2022-10-16T14:27:29;24.70;99.90
11656;DHT22;5884;43.618;1.438;2022-10-16T14:30:20;24.60;99.90
11656;DHT22;5884;43.618;1.438;2022-10-16T14:32:56;24.60;99.90
11656;DHT22;5884;43.618;1.438;2022-10-16T14:35:29;24.50;99.90
11656;DHT22;5884;43.618;1.438;2022-10-16T14:37:59;24.30;99.90
11656;DHT22;5884;43.618;1.438;2022-10-16T14:40:29;24.20;99.90
11656;DHT22;5884;43.618;1.438;2022-10-16T14:42:58;24.10;99.90
11656;DHT22;5884;43.618;1.438;2022-10-16T14:45:30;24.00;99.90
11656;DHT22;5884;43.618;1.438;2022-10-16T14:48:00;23.90;99.90
11656;DHT22;5884;43.618;1.438;2022-10-16T14:50:29;23.90;99.90
11656;DHT22;5884;43.618;1.438;2022-10-16T14:52:58;23.80;99.90
11656;DHT22;5884;43.618;1.438;2022-10-16T14:55:25;23.80;99.90
11656;DHT22;5884;43.618;1.438;2022-10-16T14:57:53;23.70;99.90
11656;DHT22;5884;43.618;1.438;2022-10-16T15:00:23;23.70;99.90
11656;DHT22;5884;43.618;1.438;2022-10-16T15:02:52;23.70;99.90
11656;DHT22;5884;43.618;1.438;2022-10-16T15:05:21;23.70;99.90
11656;DHT22;5884;43.618;1.438;2022-10-16T15:07:50;23.70;99.90
11656;DHT22;5884;43.618;1.438;2022-10-16T15:10:20;23.80;99.90
11656;DHT22;5884;43.618;1.438;2022-10-16T15:12:48;23.80;99.90
11656;DHT22;5884;43.618;1.438;2022-10-16T15:15:27;23.90;99.90
11656;DHT22;5884;43.618;1.438;2022-10-16T15:18:02;24.00;99.90
11656;DHT22;5884;43.618;1.438;2022-10-16T15:20:31;24.00;99.90
11656;DHT22;5884;43.618;1.438;2022-10-16T15:23:01;24.10;99.90
11656;DHT22;5884;43.618;1.438;2022-10-16T15:25:37;24.00;99.90
11656;DHT22;5884;43.618;1.438;2022-10-16T15:28:08;24.00;99.90
11656;DHT22;5884;43.618;1.438;2022-10-16T15:30:37;24.00;99.90
11656;DHT22;5884;43.618;1.438;2022-10-16T15:33:12;24.00;99.90
11656;DHT22;5884;43.618;1.438;2022-10-16T15:35:41;24.00;99.90
11656;DHT22;5884;43.618;1.438;2022-10-16T15:38:11;24.00;99.90
11656;DHT22;5884;43.618;1.438;2022-10-16T15:40:39;24.00;99.90
11656;DHT22;5884;43.618;1.438;2022-10-16T15:43:07;24.00;99.90
11656;DHT22;5884;43.618;1.438;2022-10-16T15:45:36;24.00;99.90
11656;DHT22;5884;43.618;1.438;2022-10-16T15:48:03;24.00;99.90
11656;DHT22;5884;43.618;1.438;2022-10-16T15:50:33;24.00;99.90
11656;DHT22;5884;43.618;1.438;2022-10-16T15:53:03;24.00;99.90
11656;DHT22;5884;43.618;1.438;2022-10-16T15:55:30;24.00;99.90
11656;DHT22;5884;43.618;1.438;2022-10-16T15:57:58;24.00;99.90
11656;DHT22;5884;43.618;1.438;2022-10-16T16:00:26;24.00;99.90
11656;DHT22;5884;43.618;1.438;2022-10-16T16:02:54;23.90;99.90
11656;DHT22;5884;43.618;1.438;2022-10-16T16:05:23;23.80;99.90
11656;DHT22;5884;43.618;1.438;2022-10-16T16:07:51;23.80;99.90
11656;DHT22;5884;43.618;1.438;2022-10-16T16:10:18;23.80;99.90
11656;DHT22;5884;43.618;1.438;2022-10-16T16:12:46;23.70;99.90
11656;DHT22;5884;43.618;1.438;2022-10-16T16:15:18;23.60;99.90
11656;DHT22;5884;43.618;1.438;2022-10-16T16:17:46;23.60;99.90
11656;DHT22;5884;43.618;1.438;2022-10-16T16:20:13;23.50;99.90
11656;DHT22;5884;43.618;1.438;2022-10-16T16:22:42;23.40;99.90
11656;DHT22;5884;43.618;1.438;2022-10-16T16:25:10;23.30;99.90
11656;DHT22;5884;43.618;1.438;2022-10-16T16:27:38;23.30;99.90
11656;DHT22;5884;43.618;1.438;2022-10-16T16:30:07;23.20;99.90
11656;DHT22;5884;43.618;1.438;2022-10-16T16:32:34;23.10;99.90
11656;DHT22;5884;43.618;1.438;2022-10-16T16:35:02;23.10;99.90
11656;DHT22;5884;43.618;1.438;2022-10-16T16:37:33;23.00;99.90
11656;DHT22;5884;43.618;1.438;2022-10-16T16:40:02;22.90;99.90
11656;DHT22;5884;43.618;1.438;2022-10-16T16:42:30;22.90;99.90
11656;DHT22;5884;43.618;1.438;2022-10-16T16:44:57;22.80;99.90
11656;DHT22;5884;43.618;1.438;2022-10-16T16:47:24;22.80;99.90
11656;DHT22;5884;43.618;1.438;2022-10-16T16:49:52;22.70;99.90
11656;DHT22;5884;43.618;1.438;2022-10-16T16:52:19;22.60;99.90
11656;DHT22;5884;43.618;1.438;2022-10-16T16:54:48;22.50;99.90
11656;DHT22;5884;43.618;1.438;2022-10-16T16:57:18;22.50;99.90
11656;DHT22;5884;43.618;1.438;2022-10-16T16:59:46;22.40;99.90
11656;DHT22;5884;43.618;1.438;2022-10-16T17:02:16;22.40;99.90
11656;DHT22;5884;43.618;1.438;2022-10-16T17:04:44;22.30;99.90
11656;DHT22;5884;43.618;1.438;2022-10-16T17:07:11;22.30;99.90
11656;DHT22;5884;43.618;1.438;2022-10-16T17:09:38;22.20;99.90
11656;DHT22;5884;43.618;1.438;2022-10-16T17:12:06;22.20;99.90
11656;DHT22;5884;43.618;1.438;2022-10-16T17:14:34;22.20;99.90
11656;DHT22;5884;43.618;1.438;2022-10-16T17:17:01;22.10;99.90
11656;DHT22;5884;43.618;1.438;2022-10-16T17:19:31;22.10;99.90
11656;DHT22;5884;43.618;1.438;2022-10-16T17:21:58;22.00;99.90
11656;DHT22;5884;43.618;1.438;2022-10-16T17:24:25;22.00;99.90
11656;DHT22;5884;43.618;1.438;2022-10-16T17:26:53;21.90;99.90
11656;DHT22;5884;43.618;1.438;2022-10-16T17:29:20;21.90;99.90
11656;DHT22;5884;43.618;1.438;2022-10-16T17:31:48;21.90;99.90
11656;DHT22;5884;43.618;1.438;2022-10-16T17:34:16;21.80;99.90
11656;DHT22;5884;43.618;1.438;2022-10-16T17:36:43;21.80;99.90
11656;DHT22;5884;43.618;1.438;2022-10-16T17:39:13;21.70;99.90
11656;DHT22;5884;43.618;1.438;2022-10-16T17:41:43;21.70;99.90
11656;DHT22;5884;43.618;1.438;2022-10-16T17:44:11;21.70;99.90
11656;DHT22;5884;43.618;1.438;2022-10-16T17:46:45;21.60;99.90
11656;DHT22;5884;43.618;1.438;2022-10-16T17:49:15;21.60;99.90
11656;DHT22;5884;43.618;1.438;2022-10-16T17:51:43;21.50;99.90
11656;DHT22;5884;43.618;1.438;2022-10-16T17:54:11;21.60;99.90
11656;DHT22;5884;43.618;1.438;2022-10-16T17:56:40;21.50;99.90
11656;DHT22;5884;43.618;1.438;2022-10-16T17:59:09;21.50;99.90
11656;DHT22;5884;43.618;1.438;2022-10-16T18:01:39;21.50;99.90
11656;DHT22;5884;43.618;1.438;2022-10-16T18:04:10;21.40;99.90
11656;DHT22;5884;43.618;1.438;2022-10-16T18:06:42;21.40;99.90
11656;DHT22;5884;43.618;1.438;2022-10-16T18:09:11;21.40;99.90
11656;DHT22;5884;43.618;1.438;2022-10-16T18:11:43;21.40;99.90
11656;DHT22;5884;43.618;1.438;2022-10-16T18:14:12;21.40;99.90
11656;DHT22;5884;43.618;1.438;2022-10-16T18:16:40;21.30;99.90
11656;DHT22;5884;43.618;1.438;2022-10-16T18:19:09;21.40;99.90
11656;DHT22;5884;43.618;1.438;2022-10-16T18:21:36;21.30;99.90
11656;DHT22;5884;43.618;1.438;2022-10-16T18:24:06;21.30;99.90
11656;DHT22;5884;43.618;1.438;2022-10-16T18:26:33;21.30;99.90
11656;DHT22;5884;43.618;1.438;2022-10-16T18:29:00;21.30;99.90
11656;DHT22;5884;43.618;1.438;2022-10-16T18:31:30;21.30;99.90
11656;DHT22;5884;43.618;1.438;2022-10-16T18:34:00;21.30;99.90
11656;DHT22;5884;43.618;1.438;2022-10-16T18:36:29;21.20;99.90
11656;DHT22;5884;43.618;1.438;2022-10-16T18:38:59;21.20;99.90
11656;DHT22;5884;43.618;1.438;2022-10-16T18:41:29;21.20;99.90
11656;DHT22;5884;43.618;1.438;2022-10-16T18:43:57;21.20;99.90
11656;DHT22;5884;43.618;1.438;2022-10-16T18:46:25;21.20;99.90
11656;DHT22;5884;43.618;1.438;2022-10-16T18:48:54;21.20;99.90
11656;DHT22;5884;43.618;1.438;2022-10-16T18:51:24;21.20;99.90
11656;DHT22;5884;43.618;1.438;2022-10-16T18:53:54;21.20;99.90
11656;DHT22;5884;43.618;1.438;2022-10-16T18:56:25;21.10;99.90
11656;DHT22;5884;43.618;1.438;2022-10-16T18:58:57;21.20;99.90
11656;DHT22;5884;43.618;1.438;2022-10-16T19:01:27;21.10;99.90
11656;DHT22;5884;43.618;1.438;2022-10-16T19:03:56;21.10;99.90
11656;DHT22;5884;43.618;1.438;2022-10-16T19:06:24;21.10;99.90
11656;DHT22;5884;43.618;1.438;2022-10-16T19:08:53;21.10;99.90
11656;DHT22;5884;43.618;1.438;2022-10-16T19:11:22;21.10;99.90
11656;DHT22;5884;43.618;1.438;2022-10-16T19:13:50;21.10;99.90
11656;DHT22;5884;43.618;1.438;2022-10-16T19:16:23;21.10;99.90
11656;DHT22;5884;43.618;1.438;2022-10-16T19:18:52;21.10;99.90
11656;DHT22;5884;43.618;1.438;2022-10-16T19:21:22;21.10;99.90
11656;DHT22;5884;43.618;1.438;2022-10-16T19:23:51;21.10;99.90
11656;DHT22;5884;43.618;1.438;2022-10-16T19:26:19;21.00;99.90
11656;DHT22;5884;43.618;1.438;2022-10-16T19:28:48;21.00;99.90
11656;DHT22;5884;43.618;1.438;2022-10-16T19:31:17;21.00;99.90
11656;DHT22;5884;43.618;1.438;2022-10-16T19:33:50;21.00;99.90
11656;DHT22;5884;43.618;1.438;2022-10-16T19:36:21;21.10;99.90
11656;DHT22;5884;43.618;1.438;2022-10-16T19:38:52;21.00;99.90
11656;DHT22;5884;43.618;1.438;2022-10-16T19:41:21;21.10;99.90
11656;DHT22;5884;43.618;1.438;2022-10-16T19:43:49;21.00;99.90
11656;DHT22;5884;43.618;1.438;2022-10-16T19:46:19;21.00;99.90
11656;DHT22;5884;43.618;1.438;2022-10-16T19:48:53;21.00;99.90
11656;DHT22;5884;43.618;1.438;2022-10-16T19:51:21;20.90;99.90
11656;DHT22;5884;43.618;1.438;2022-10-16T19:53:53;21.00;99.90
11656;DHT22;5884;43.618;1.438;2022-10-16T19:56:23;20.90;99.90
11656;DHT22;5884;43.618;1.438;2022-10-16T19:58:52;20.90;99.90
11656;DHT22;5884;43.618;1.438;2022-10-16T20:01:21;21.00;99.90
11656;DHT22;5884;43.618;1.438;2022-10-16T20:03:51;21.00;99.90
11656;DHT22;5884;43.618;1.438;2022-10-16T20:06:19;21.00;99.90
11656;DHT22;5884;43.618;1.438;2022-10-16T20:08:48;20.90;99.90
11656;DHT22;5884;43.618;1.438;2022-10-16T20:11:22;20.90;99.90
11656;DHT22;5884;43.618;1.438;2022-10-16T20:13:52;20.90;99.90
11656;DHT22;5884;43.618;1.438;2022-10-16T20:16:19;20.90;99.90
11656;DHT22;5884;43.618;1.438;2022-10-16T20:18:48;20.90;99.90
11656;DHT22;5884;43.618;1.438;2022-10-16T20:21:20;20.90;99.90
11656;DHT22;5884;43.618;1.438;2022-10-16T20:23:51;20.80;99.90
11656;DHT22;5884;43.618;1.438;2022-10-16T20:26:19;20.90;99.90
11656;DHT22;5884;43.618;1.438;2022-10-16T20:28:48;20.80;99.90
11656;DHT22;5884;43.618;1.438;2022-10-16T20:31:18;20.80;99.90
11656;DHT22;5884;43.618;1.438;2022-10-16T20:33:47;20.80;99.90
11656;DHT22;5884;43.618;1.438;2022-10-16T20:36:17;20.80;99.90
11656;DHT22;5884;43.618;1.438;2022-10-16T20:38:46;20.80;99.90
11656;DHT22;5884;43.618;1.438;2022-10-16T20:41:14;20.80;99.90
11656;DHT22;5884;43.618;1.438;2022-10-16T20:43:45;20.70;99.90
11656;DHT22;5884;43.618;1.438;2022-10-16T20:46:14;20.80;99.90
11656;DHT22;5884;43.618;1.438;2022-10-16T20:48:43;20.70;99.90
11656;DHT22;5884;43.618;1.438;2022-10-16T20:51:13;20.70;99.90
11656;DHT22;5884;43.618;1.438;2022-10-16T20:53:43;20.70;99.90
11656;DHT22;5884;43.618;1.438;2022-10-16T20:56:11;20.70;99.90
11656;DHT22;5884;43.618;1.438;2022-10-16T20:58:40;20.80;99.90
